sensor_id;sensor_type;location;lat;lon;timestamp;P1;durP1;ratioP1;P2;durP2;ratioP2
11827;SDS011;5971;49.646;8.568;2023-07-13T00:01:57;3.10;;;1.50;;
11827;SDS011;5971;49.646;8.568;2023-07-13T00:04:58;2.70;;;1.77;;
11827;SDS011;5971;49.646;8.568;2023-07-13T00:08:00;3.03;;;1.70;;
11827;SDS011;5971;49.646;8.568;2023-07-13T00:11:01;4.68;;;1.70;;
11827;SDS011;5971;49.646;8.568;2023-07-13T00:14:03;4.30;;;1.48;;
11827;SDS011;5971;49.646;8.568;2023-07-13T00:17:04;5.40;;;2.03;;
11827;SDS011;5971;49.646;8.568;2023-07-13T00:20:06;2.35;;;1.52;;
11827;SDS011;5971;49.646;8.568;2023-07-13T00:23:08;3.80;;;1.42;;
11827;SDS011;5971;49.646;8.568;2023-07-13T00:26:10;2.75;;;1.23;;
11827;SDS011;5971;49.646;8.568;2023-07-13T00:29:12;2.67;;;1.60;;
11827;SDS011;5971;49.646;8.568;2023-07-13T00:32:14;4.35;;;1.58;;
11827;SDS011;5971;49.646;8.568;2023-07-13T00:35:16;3.67;;;1.25;;
11827;SDS011;5971;49.646;8.568;2023-07-13T00:38:18;4.78;;;2.00;;
11827;SDS011;5971;49.646;8.568;2023-07-13T00:41:19;3.03;;;1.33;;
11827;SDS011;5971;49.646;8.568;2023-07-13T00:44:20;3.38;;;1.60;;
11827;SDS011;5971;49.646;8.568;2023-07-13T00:47:25;2.53;;;1.35;;
11827;SDS011;5971;49.646;8.568;2023-07-13T00:50:26;3.30;;;1.65;;
11827;SDS011;5971;49.646;8.568;2023-07-13T00:53:28;3.20;;;1.70;;
11827;SDS011;5971;49.646;8.568;2023-07-13T00:56:30;2.70;;;1.50;;
11827;SDS011;5971;49.646;8.568;2023-07-13T00:59:33;2.92;;;1.73;;
11827;SDS011;5971;49.646;8.568;2023-07-13T01:02:37;2.90;;;1.85;;
11827;SDS011;5971;49.646;8.568;2023-07-13T01:05:39;4.72;;;1.65;;
11827;SDS011;5971;49.646;8.568;2023-07-13T01:08:40;3.60;;;1.85;;
11827;SDS011;5971;49.646;8.568;2023-07-13T01:11:42;2.72;;;1.60;;
11827;SDS011;5971;49.646;8.568;2023-07-13T01:14:43;3.65;;;1.40;;
11827;SDS011;5971;49.646;8.568;2023-07-13T01:17:44;2.75;;;1.52;;
11827;SDS011;5971;49.646;8.568;2023-07-13T01:23:53;2.72;;;1.60;;
11827;SDS011;5971;49.646;8.568;2023-07-13T01:26:54;4.18;;;1.80;;
11827;SDS011;5971;49.646;8.568;2023-07-13T01:29:56;3.88;;;1.90;;
11827;SDS011;5971;49.646;8.568;2023-07-13T01:33:06;3.97;;;1.67;;
11827;SDS011;5971;49.646;8.568;2023-07-13T01:36:08;3.20;;;1.63;;
11827;SDS011;5971;49.646;8.568;2023-07-13T01:39:11;4.15;;;2.13;;
11827;SDS011;5971;49.646;8.568;2023-07-13T01:42:13;4.28;;;1.88;;
11827;SDS011;5971;49.646;8.568;2023-07-13T01:45:15;3.47;;;1.90;;
11827;SDS011;5971;49.646;8.568;2023-07-13T01:48:16;3.40;;;1.70;;
11827;SDS011;5971;49.646;8.568;2023-07-13T01:51:18;3.00;;;2.17;;
11827;SDS011;5971;49.646;8.568;2023-07-13T01:54:19;3.35;;;1.90;;
11827;SDS011;5971;49.646;8.568;2023-07-13T01:57:20;3.58;;;1.83;;
11827;SDS011;5971;49.646;8.568;2023-07-13T02:00:22;3.90;;;2.05;;
11827;SDS011;5971;49.646;8.568;2023-07-13T02:03:23;4.28;;;1.95;;
11827;SDS011;5971;49.646;8.568;2023-07-13T02:06:25;3.80;;;1.90;;
11827;SDS011;5971;49.646;8.568;2023-07-13T02:09:26;4.38;;;2.30;;
11827;SDS011;5971;49.646;8.568;2023-07-13T02:12:28;4.75;;;1.85;;
11827;SDS011;5971;49.646;8.568;2023-07-13T02:15:29;3.97;;;1.95;;
11827;SDS011;5971;49.646;8.568;2023-07-13T02:18:31;3.13;;;1.92;;
11827;SDS011;5971;49.646;8.568;2023-07-13T02:21:32;4.60;;;2.17;;
11827;SDS011;5971;49.646;8.568;2023-07-13T02:24:33;3.08;;;1.88;;
11827;SDS011;5971;49.646;8.568;2023-07-13T02:27:35;4.43;;;2.22;;
11827;SDS011;5971;49.646;8.568;2023-07-13T02:30:36;2.67;;;1.60;;
11827;SDS011;5971;49.646;8.568;2023-07-13T02:33:37;3.45;;;1.88;;
11827;SDS011;5971;49.646;8.568;2023-07-13T02:36:39;3.08;;;1.90;;
11827;SDS011;5971;49.646;8.568;2023-07-13T02:39:40;3.72;;;1.95;;
11827;SDS011;5971;49.646;8.568;2023-07-13T02:42:42;4.45;;;2.15;;
11827;SDS011;5971;49.646;8.568;2023-07-13T02:45:44;4.50;;;1.83;;
11827;SDS011;5971;49.646;8.568;2023-07-13T02:48:45;3.20;;;2.17;;
11827;SDS011;5971;49.646;8.568;2023-07-13T02:51:47;5.22;;;2.33;;
11827;SDS011;5971;49.646;8.568;2023-07-13T02:54:48;4.75;;;2.30;;
11827;SDS011;5971;49.646;8.568;2023-07-13T02:57:50;4.28;;;2.30;;
11827;SDS011;5971;49.646;8.568;2023-07-13T03:00:51;5.35;;;2.25;;
11827;SDS011;5971;49.646;8.568;2023-07-13T03:03:53;3.88;;;2.60;;
11827;SDS011;5971;49.646;8.568;2023-07-13T03:06:54;3.35;;;1.95;;
11827;SDS011;5971;49.646;8.568;2023-07-13T03:09:58;4.25;;;2.38;;
11827;SDS011;5971;49.646;8.568;2023-07-13T03:13:00;4.85;;;2.08;;
11827;SDS011;5971;49.646;8.568;2023-07-13T03:16:01;5.68;;;2.42;;
11827;SDS011;5971;49.646;8.568;2023-07-13T03:19:03;3.25;;;2.15;;
11827;SDS011;5971;49.646;8.568;2023-07-13T03:22:04;4.68;;;2.47;;
11827;SDS011;5971;49.646;8.568;2023-07-13T03:25:06;4.03;;;2.10;;
11827;SDS011;5971;49.646;8.568;2023-07-13T03:28:07;4.03;;;2.42;;
11827;SDS011;5971;49.646;8.568;2023-07-13T03:31:10;5.28;;;2.28;;
11827;SDS011;5971;49.646;8.568;2023-07-13T03:34:12;3.13;;;1.92;;
11827;SDS011;5971;49.646;8.568;2023-07-13T03:37:13;3.90;;;2.10;;
11827;SDS011;5971;49.646;8.568;2023-07-13T03:40:15;5.05;;;2.35;;
11827;SDS011;5971;49.646;8.568;2023-07-13T03:43:16;4.53;;;2.47;;
11827;SDS011;5971;49.646;8.568;2023-07-13T03:46:18;3.80;;;2.17;;
11827;SDS011;5971;49.646;8.568;2023-07-13T03:49:19;5.65;;;2.45;;
11827;SDS011;5971;49.646;8.568;2023-07-13T03:52:21;3.78;;;2.03;;
11827;SDS011;5971;49.646;8.568;2023-07-13T03:55:22;4.13;;;2.22;;
11827;SDS011;5971;49.646;8.568;2023-07-13T03:58:37;4.22;;;2.25;;
11827;SDS011;5971;49.646;8.568;2023-07-13T04:01:38;4.93;;;2.58;;
11827;SDS011;5971;49.646;8.568;2023-07-13T04:04:40;4.18;;;2.22;;
11827;SDS011;5971;49.646;8.568;2023-07-13T04:07:42;4.20;;;2.42;;
11827;SDS011;5971;49.646;8.568;2023-07-13T04:10:44;4.25;;;2.30;;
11827;SDS011;5971;49.646;8.568;2023-07-13T04:13:45;5.13;;;2.47;;
11827;SDS011;5971;49.646;8.568;2023-07-13T04:16:47;3.90;;;2.38;;
11827;SDS011;5971;49.646;8.568;2023-07-13T04:19:48;4.03;;;2.17;;
11827;SDS011;5971;49.646;8.568;2023-07-13T04:22:50;4.32;;;2.30;;
11827;SDS011;5971;49.646;8.568;2023-07-13T04:25:52;4.45;;;2.35;;
11827;SDS011;5971;49.646;8.568;2023-07-13T04:28:54;6.10;;;2.30;;
11827;SDS011;5971;49.646;8.568;2023-07-13T04:31:55;5.18;;;2.50;;
11827;SDS011;5971;49.646;8.568;2023-07-13T04:34:56;5.32;;;2.65;;
11827;SDS011;5971;49.646;8.568;2023-07-13T04:38:00;3.83;;;2.72;;
11827;SDS011;5971;49.646;8.568;2023-07-13T04:41:03;4.60;;;2.42;;
11827;SDS011;5971;49.646;8.568;2023-07-13T04:44:05;5.85;;;2.38;;
11827;SDS011;5971;49.646;8.568;2023-07-13T04:47:07;4.18;;;1.92;;
11827;SDS011;5971;49.646;8.568;2023-07-13T04:50:08;3.78;;;2.47;;
11827;SDS011;5971;49.646;8.568;2023-07-13T04:53:12;4.32;;;2.75;;
11827;SDS011;5971;49.646;8.568;2023-07-13T04:56:13;4.68;;;2.13;;
11827;SDS011;5971;49.646;8.568;2023-07-13T04:59:15;5.85;;;2.40;;
11827;SDS011;5971;49.646;8.568;2023-07-13T05:02:17;4.53;;;2.42;;
11827;SDS011;5971;49.646;8.568;2023-07-13T05:05:21;4.20;;;2.08;;
11827;SDS011;5971;49.646;8.568;2023-07-13T05:08:23;5.00;;;2.40;;
11827;SDS011;5971;49.646;8.568;2023-07-13T05:11:24;5.57;;;2.17;;
11827;SDS011;5971;49.646;8.568;2023-07-13T05:14:26;2.92;;;1.90;;
11827;SDS011;5971;49.646;8.568;2023-07-13T05:17:27;4.07;;;2.00;;
11827;SDS011;5971;49.646;8.568;2023-07-13T05:20:29;3.10;;;1.88;;
11827;SDS011;5971;49.646;8.568;2023-07-13T05:23:31;5.65;;;2.20;;
11827;SDS011;5971;49.646;8.568;2023-07-13T05:26:33;4.22;;;1.95;;
11827;SDS011;5971;49.646;8.568;2023-07-13T05:29:34;4.38;;;2.00;;
11827;SDS011;5971;49.646;8.568;2023-07-13T05:32:36;3.83;;;1.85;;
11827;SDS011;5971;49.646;8.568;2023-07-13T05:35:37;5.30;;;2.20;;
11827;SDS011;5971;49.646;8.568;2023-07-13T05:38:39;4.90;;;1.95;;
11827;SDS011;5971;49.646;8.568;2023-07-13T05:41:41;4.95;;;2.30;;
11827;SDS011;5971;49.646;8.568;2023-07-13T05:44:43;3.08;;;1.88;;
11827;SDS011;5971;49.646;8.568;2023-07-13T05:47:45;5.70;;;2.00;;
11827;SDS011;5971;49.646;8.568;2023-07-13T05:50:46;4.72;;;1.88;;
11827;SDS011;5971;49.646;8.568;2023-07-13T05:53:48;5.10;;;1.80;;
11827;SDS011;5971;49.646;8.568;2023-07-13T05:56:49;3.40;;;1.77;;
11827;SDS011;5971;49.646;8.568;2023-07-13T05:59:51;3.25;;;1.80;;
11827;SDS011;5971;49.646;8.568;2023-07-13T06:02:52;4.18;;;1.83;;
11827;SDS011;5971;49.646;8.568;2023-07-13T06:05:54;3.10;;;1.83;;
11827;SDS011;5971;49.646;8.568;2023-07-13T06:08:55;2.63;;;1.45;;
11827;SDS011;5971;49.646;8.568;2023-07-13T06:11:56;3.45;;;1.83;;
11827;SDS011;5971;49.646;8.568;2023-07-13T06:14:57;3.33;;;2.00;;
11827;SDS011;5971;49.646;8.568;2023-07-13T06:17:59;4.20;;;1.83;;
11827;SDS011;5971;49.646;8.568;2023-07-13T06:21:05;2.92;;;1.65;;
11827;SDS011;5971;49.646;8.568;2023-07-13T06:24:06;3.92;;;1.70;;
11827;SDS011;5971;49.646;8.568;2023-07-13T06:27:08;2.70;;;1.58;;
11827;SDS011;5971;49.646;8.568;2023-07-13T06:30:09;3.30;;;1.70;;
11827;SDS011;5971;49.646;8.568;2023-07-13T06:33:11;4.05;;;2.03;;
11827;SDS011;5971;49.646;8.568;2023-07-13T06:36:13;2.70;;;1.50;;
11827;SDS011;5971;49.646;8.568;2023-07-13T06:39:14;3.17;;;1.65;;
11827;SDS011;5971;49.646;8.568;2023-07-13T06:42:16;2.55;;;1.52;;
11827;SDS011;5971;49.646;8.568;2023-07-13T06:45:17;2.50;;;1.60;;
11827;SDS011;5971;49.646;8.568;2023-07-13T06:48:19;4.10;;;1.55;;
11827;SDS011;5971;49.646;8.568;2023-07-13T06:51:20;2.80;;;1.95;;
11827;SDS011;5971;49.646;8.568;2023-07-13T06:54:21;3.63;;;1.67;;
11827;SDS011;5971;49.646;8.568;2023-07-13T06:57:23;3.20;;;1.50;;
11827;SDS011;5971;49.646;8.568;2023-07-13T07:00:24;3.40;;;1.52;;
11827;SDS011;5971;49.646;8.568;2023-07-13T07:03:25;5.80;;;1.70;;
11827;SDS011;5971;49.646;8.568;2023-07-13T07:06:27;2.85;;;1.50;;
11827;SDS011;5971;49.646;8.568;2023-07-13T07:09:29;2.35;;;1.27;;
11827;SDS011;5971;49.646;8.568;2023-07-13T07:12:32;2.17;;;1.13;;
11827;SDS011;5971;49.646;8.568;2023-07-13T07:15:34;2.47;;;1.35;;
11827;SDS011;5971;49.646;8.568;2023-07-13T07:18:35;3.22;;;1.23;;
11827;SDS011;5971;49.646;8.568;2023-07-13T07:21:37;2.47;;;1.20;;
11827;SDS011;5971;49.646;8.568;2023-07-13T07:24:38;3.03;;;1.25;;
11827;SDS011;5971;49.646;8.568;2023-07-13T07:27:40;2.45;;;0.95;;
11827;SDS011;5971;49.646;8.568;2023-07-13T07:30:44;3.85;;;1.30;;
11827;SDS011;5971;49.646;8.568;2023-07-13T07:33:49;2.22;;;1.02;;
11827;SDS011;5971;49.646;8.568;2023-07-13T07:36:51;4.07;;;1.05;;
11827;SDS011;5971;49.646;8.568;2023-07-13T07:39:55;1.75;;;1.05;;
11827;SDS011;5971;49.646;8.568;2023-07-13T07:42:59;3.95;;;1.20;;
11827;SDS011;5971;49.646;8.568;2023-07-13T07:46:01;2.95;;;1.20;;
11827;SDS011;5971;49.646;8.568;2023-07-13T07:49:03;2.38;;;1.00;;
11827;SDS011;5971;49.646;8.568;2023-07-13T07:52:05;4.38;;;1.30;;
11827;SDS011;5971;49.646;8.568;2023-07-13T07:55:07;2.60;;;1.02;;
11827;SDS011;5971;49.646;8.568;2023-07-13T07:58:11;3.75;;;1.00;;
11827;SDS011;5971;49.646;8.568;2023-07-13T08:01:32;1.83;;;0.93;;
11827;SDS011;5971;49.646;8.568;2023-07-13T08:04:37;3.22;;;1.63;;
11827;SDS011;5971;49.646;8.568;2023-07-13T08:07:58;3.33;;;1.40;;
11827;SDS011;5971;49.646;8.568;2023-07-13T08:11:02;4.35;;;1.52;;
11827;SDS011;5971;49.646;8.568;2023-07-13T08:14:15;3.97;;;1.20;;
11827;SDS011;5971;49.646;8.568;2023-07-13T08:17:17;1.73;;;1.05;;
11827;SDS011;5971;49.646;8.568;2023-07-13T08:20:18;2.58;;;1.20;;
11827;SDS011;5971;49.646;8.568;2023-07-13T08:23:20;2.08;;;1.20;;
11827;SDS011;5971;49.646;8.568;2023-07-13T08:26:21;2.38;;;1.23;;
11827;SDS011;5971;49.646;8.568;2023-07-13T08:29:23;3.05;;;1.15;;
11827;SDS011;5971;49.646;8.568;2023-07-13T08:32:24;3.60;;;1.30;;
11827;SDS011;5971;49.646;8.568;2023-07-13T08:35:25;2.30;;;1.10;;
11827;SDS011;5971;49.646;8.568;2023-07-13T08:38:27;3.53;;;1.35;;
11827;SDS011;5971;49.646;8.568;2023-07-13T08:41:28;4.10;;;1.45;;
11827;SDS011;5971;49.646;8.568;2023-07-13T08:44:54;3.08;;;1.13;;
11827;SDS011;5971;49.646;8.568;2023-07-13T08:48:01;2.25;;;0.95;;
11827;SDS011;5971;49.646;8.568;2023-07-13T08:54:19;2.42;;;1.00;;
11827;SDS011;5971;49.646;8.568;2023-07-13T08:57:30;3.03;;;1.30;;
11827;SDS011;5971;49.646;8.568;2023-07-13T09:00:41;3.78;;;1.10;;
11827;SDS011;5971;49.646;8.568;2023-07-13T09:04:19;2.72;;;1.40;;
11827;SDS011;5971;49.646;8.568;2023-07-13T09:10:24;2.30;;;1.10;;
11827;SDS011;5971;49.646;8.568;2023-07-13T09:16:39;3.33;;;1.02;;
11827;SDS011;5971;49.646;8.568;2023-07-13T09:19:41;1.88;;;1.08;;
11827;SDS011;5971;49.646;8.568;2023-07-13T09:22:43;2.85;;;1.10;;
11827;SDS011;5971;49.646;8.568;2023-07-13T09:25:45;3.22;;;1.02;;
11827;SDS011;5971;49.646;8.568;2023-07-13T09:28:57;3.17;;;0.98;;
11827;SDS011;5971;49.646;8.568;2023-07-13T09:32:01;2.80;;;1.20;;
11827;SDS011;5971;49.646;8.568;2023-07-13T09:35:07;3.22;;;1.13;;
11827;SDS011;5971;49.646;8.568;2023-07-13T09:38:11;2.40;;;1.02;;
11827;SDS011;5971;49.646;8.568;2023-07-13T09:44:18;1.90;;;1.02;;
11827;SDS011;5971;49.646;8.568;2023-07-13T09:47:30;2.88;;;1.10;;
11827;SDS011;5971;49.646;8.568;2023-07-13T09:50:32;2.67;;;1.17;;
11827;SDS011;5971;49.646;8.568;2023-07-13T09:53:33;3.13;;;1.13;;
11827;SDS011;5971;49.646;8.568;2023-07-13T09:56:34;2.33;;;1.05;;
11827;SDS011;5971;49.646;8.568;2023-07-13T09:59:39;2.28;;;1.35;;
11827;SDS011;5971;49.646;8.568;2023-07-13T10:02:41;2.65;;;1.10;;
11827;SDS011;5971;49.646;8.568;2023-07-13T10:05:44;2.05;;;1.10;;
11827;SDS011;5971;49.646;8.568;2023-07-13T10:08:46;2.42;;;1.13;;
11827;SDS011;5971;49.646;8.568;2023-07-13T10:11:50;3.42;;;1.50;;
11827;SDS011;5971;49.646;8.568;2023-07-13T10:14:57;4.32;;;1.10;;
11827;SDS011;5971;49.646;8.568;2023-07-13T10:18:17;2.40;;;1.35;;
11827;SDS011;5971;49.646;8.568;2023-07-13T10:21:20;2.88;;;1.33;;
11827;SDS011;5971;49.646;8.568;2023-07-13T10:24:36;2.42;;;0.85;;
11827;SDS011;5971;49.646;8.568;2023-07-13T10:27:39;2.55;;;1.02;;
11827;SDS011;5971;49.646;8.568;2023-07-13T10:30:41;1.92;;;1.02;;
11827;SDS011;5971;49.646;8.568;2023-07-13T10:33:44;3.75;;;1.20;;
11827;SDS011;5971;49.646;8.568;2023-07-13T10:36:46;2.67;;;1.00;;
11827;SDS011;5971;49.646;8.568;2023-07-13T10:39:48;2.60;;;1.23;;
11827;SDS011;5971;49.646;8.568;2023-07-13T10:42:51;3.40;;;1.10;;
11827;SDS011;5971;49.646;8.568;2023-07-13T10:45:54;2.97;;;1.10;;
11827;SDS011;5971;49.646;8.568;2023-07-13T10:49:00;2.35;;;1.27;;
11827;SDS011;5971;49.646;8.568;2023-07-13T10:52:03;2.15;;;0.98;;
11827;SDS011;5971;49.646;8.568;2023-07-13T10:55:04;2.78;;;1.00;;
11827;SDS011;5971;49.646;8.568;2023-07-13T10:58:20;3.40;;;1.20;;
11827;SDS011;5971;49.646;8.568;2023-07-13T11:01:22;2.33;;;1.10;;
11827;SDS011;5971;49.646;8.568;2023-07-13T11:04:29;3.55;;;1.10;;
11827;SDS011;5971;49.646;8.568;2023-07-13T11:07:30;2.53;;;1.00;;
11827;SDS011;5971;49.646;8.568;2023-07-13T11:10:46;2.55;;;1.02;;
11827;SDS011;5971;49.646;8.568;2023-07-13T11:16:52;2.00;;;1.00;;
11827;SDS011;5971;49.646;8.568;2023-07-13T11:19:53;2.08;;;1.00;;
11827;SDS011;5971;49.646;8.568;2023-07-13T11:29:38;1.88;;;1.40;;
11827;SDS011;5971;49.646;8.568;2023-07-13T11:32:40;2.72;;;1.00;;
11827;SDS011;5971;49.646;8.568;2023-07-13T11:36:04;2.40;;;1.25;;
11827;SDS011;5971;49.646;8.568;2023-07-13T11:39:05;2.60;;;1.23;;
11827;SDS011;5971;49.646;8.568;2023-07-13T11:42:13;4.40;;;2.33;;
11827;SDS011;5971;49.646;8.568;2023-07-13T11:45:18;4.72;;;2.53;;
11827;SDS011;5971;49.646;8.568;2023-07-13T11:48:22;3.70;;;2.42;;
11827;SDS011;5971;49.646;8.568;2023-07-13T11:51:29;5.63;;;3.42;;
11827;SDS011;5971;49.646;8.568;2023-07-13T11:54:33;4.10;;;2.33;;
11827;SDS011;5971;49.646;8.568;2023-07-13T11:57:37;2.15;;;1.02;;
11827;SDS011;5971;49.646;8.568;2023-07-13T12:00:40;2.70;;;1.40;;
11827;SDS011;5971;49.646;8.568;2023-07-13T12:03:42;2.53;;;1.15;;
11827;SDS011;5971;49.646;8.568;2023-07-13T12:06:44;4.07;;;1.90;;
11827;SDS011;5971;49.646;8.568;2023-07-13T12:09:46;2.40;;;1.15;;
11827;SDS011;5971;49.646;8.568;2023-07-13T12:12:55;2.35;;;1.10;;
11827;SDS011;5971;49.646;8.568;2023-07-13T12:15:56;1.85;;;1.17;;
11827;SDS011;5971;49.646;8.568;2023-07-13T12:19:01;1.70;;;1.13;;
11827;SDS011;5971;49.646;8.568;2023-07-13T12:22:03;2.08;;;1.00;;
11827;SDS011;5971;49.646;8.568;2023-07-13T12:25:05;2.35;;;1.25;;
11827;SDS011;5971;49.646;8.568;2023-07-13T12:28:31;1.98;;;0.90;;
11827;SDS011;5971;49.646;8.568;2023-07-13T12:34:29;2.40;;;1.08;;
11827;SDS011;5971;49.646;8.568;2023-07-13T12:37:33;3.13;;;1.60;;
11827;SDS011;5971;49.646;8.568;2023-07-13T12:40:35;2.67;;;1.05;;
11827;SDS011;5971;49.646;8.568;2023-07-13T12:43:38;2.22;;;1.23;;
11827;SDS011;5971;49.646;8.568;2023-07-13T12:46:39;2.92;;;1.08;;
11827;SDS011;5971;49.646;8.568;2023-07-13T12:49:53;2.10;;;1.05;;
11827;SDS011;5971;49.646;8.568;2023-07-13T12:52:56;2.22;;;1.00;;
11827;SDS011;5971;49.646;8.568;2023-07-13T12:56:01;1.83;;;1.23;;
11827;SDS011;5971;49.646;8.568;2023-07-13T12:59:04;4.30;;;1.00;;
11827;SDS011;5971;49.646;8.568;2023-07-13T13:05:26;1.80;;;0.98;;
11827;SDS011;5971;49.646;8.568;2023-07-13T13:08:28;2.15;;;1.10;;
11827;SDS011;5971;49.646;8.568;2023-07-13T13:11:30;2.40;;;1.20;;
11827;SDS011;5971;49.646;8.568;2023-07-13T13:14:32;3.25;;;1.02;;
11827;SDS011;5971;49.646;8.568;2023-07-13T13:17:33;2.63;;;1.40;;
11827;SDS011;5971;49.646;8.568;2023-07-13T13:20:35;5.45;;;1.65;;
11827;SDS011;5971;49.646;8.568;2023-07-13T13:23:37;2.03;;;1.20;;
11827;SDS011;5971;49.646;8.568;2023-07-13T13:26:39;2.78;;;1.13;;
11827;SDS011;5971;49.646;8.568;2023-07-13T13:29:41;3.55;;;1.25;;
11827;SDS011;5971;49.646;8.568;2023-07-13T13:32:43;3.20;;;1.10;;
11827;SDS011;5971;49.646;8.568;2023-07-13T13:35:45;2.63;;;1.17;;
11827;SDS011;5971;49.646;8.568;2023-07-13T13:38:47;2.35;;;1.08;;
11827;SDS011;5971;49.646;8.568;2023-07-13T13:41:49;3.22;;;1.17;;
11827;SDS011;5971;49.646;8.568;2023-07-13T13:44:51;2.95;;;1.23;;
11827;SDS011;5971;49.646;8.568;2023-07-13T13:47:52;3.33;;;1.30;;
11827;SDS011;5971;49.646;8.568;2023-07-13T13:50:54;3.22;;;1.30;;
11827;SDS011;5971;49.646;8.568;2023-07-13T13:53:55;1.92;;;0.88;;
11827;SDS011;5971;49.646;8.568;2023-07-13T13:56:56;2.97;;;1.40;;
11827;SDS011;5971;49.646;8.568;2023-07-13T14:00:01;1.88;;;1.00;;
11827;SDS011;5971;49.646;8.568;2023-07-13T14:03:02;2.70;;;1.20;;
11827;SDS011;5971;49.646;8.568;2023-07-13T14:06:04;2.92;;;1.40;;
11827;SDS011;5971;49.646;8.568;2023-07-13T14:09:08;1.90;;;1.10;;
11827;SDS011;5971;49.646;8.568;2023-07-13T14:12:10;2.33;;;1.10;;
11827;SDS011;5971;49.646;8.568;2023-07-13T14:15:30;1.92;;;1.02;;
11827;SDS011;5971;49.646;8.568;2023-07-13T14:18:32;4.35;;;1.27;;
11827;SDS011;5971;49.646;8.568;2023-07-13T14:21:33;2.90;;;1.23;;
11827;SDS011;5971;49.646;8.568;2023-07-13T14:24:34;2.28;;;0.93;;
11827;SDS011;5971;49.646;8.568;2023-07-13T14:27:36;3.42;;;1.20;;
11827;SDS011;5971;49.646;8.568;2023-07-13T14:30:37;2.38;;;1.13;;
11827;SDS011;5971;49.646;8.568;2023-07-13T14:33:39;2.63;;;1.50;;
11827;SDS011;5971;49.646;8.568;2023-07-13T14:36:41;1.77;;;0.90;;
11827;SDS011;5971;49.646;8.568;2023-07-13T14:39:44;2.45;;;1.10;;
11827;SDS011;5971;49.646;8.568;2023-07-13T14:42:46;2.25;;;1.10;;
11827;SDS011;5971;49.646;8.568;2023-07-13T14:45:49;2.00;;;1.10;;
11827;SDS011;5971;49.646;8.568;2023-07-13T14:48:51;3.17;;;1.08;;
11827;SDS011;5971;49.646;8.568;2023-07-13T14:51:54;3.55;;;1.13;;
11827;SDS011;5971;49.646;8.568;2023-07-13T14:54:56;1.88;;;1.02;;
11827;SDS011;5971;49.646;8.568;2023-07-13T14:57:57;2.60;;;1.85;;
11827;SDS011;5971;49.646;8.568;2023-07-13T15:00:59;3.50;;;1.33;;
11827;SDS011;5971;49.646;8.568;2023-07-13T15:04:00;2.58;;;1.20;;
11827;SDS011;5971;49.646;8.568;2023-07-13T15:07:02;2.83;;;1.02;;
11827;SDS011;5971;49.646;8.568;2023-07-13T15:10:14;2.22;;;1.00;;
11827;SDS011;5971;49.646;8.568;2023-07-13T15:13:18;2.47;;;1.10;;
11827;SDS011;5971;49.646;8.568;2023-07-13T15:16:23;1.45;;;1.02;;
11827;SDS011;5971;49.646;8.568;2023-07-13T15:19:25;2.83;;;1.35;;
11827;SDS011;5971;49.646;8.568;2023-07-13T15:22:27;2.65;;;1.15;;
11827;SDS011;5971;49.646;8.568;2023-07-13T15:25:29;2.40;;;1.00;;
11827;SDS011;5971;49.646;8.568;2023-07-13T15:28:31;1.80;;;1.00;;
11827;SDS011;5971;49.646;8.568;2023-07-13T15:31:33;3.53;;;1.25;;
11827;SDS011;5971;49.646;8.568;2023-07-13T15:34:35;1.98;;;0.90;;
11827;SDS011;5971;49.646;8.568;2023-07-13T15:37:37;2.20;;;1.15;;
11827;SDS011;5971;49.646;8.568;2023-07-13T15:40:38;2.40;;;1.35;;
11827;SDS011;5971;49.646;8.568;2023-07-13T15:43:41;3.55;;;1.02;;
11827;SDS011;5971;49.646;8.568;2023-07-13T15:46:42;2.15;;;0.93;;
11827;SDS011;5971;49.646;8.568;2023-07-13T15:49:44;2.58;;;1.10;;
11827;SDS011;5971;49.646;8.568;2023-07-13T15:52:48;2.67;;;0.95;;
11827;SDS011;5971;49.646;8.568;2023-07-13T15:55:50;2.20;;;1.02;;
11827;SDS011;5971;49.646;8.568;2023-07-13T15:58:52;4.40;;;1.13;;
11827;SDS011;5971;49.646;8.568;2023-07-13T16:01:54;2.35;;;1.00;;
11827;SDS011;5971;49.646;8.568;2023-07-13T16:04:55;2.45;;;1.10;;
11827;SDS011;5971;49.646;8.568;2023-07-13T16:07:57;2.20;;;1.10;;
11827;SDS011;5971;49.646;8.568;2023-07-13T16:10:59;2.70;;;1.10;;
11827;SDS011;5971;49.646;8.568;2023-07-13T16:14:01;2.33;;;1.00;;
11827;SDS011;5971;49.646;8.568;2023-07-13T16:17:03;2.35;;;1.20;;
11827;SDS011;5971;49.646;8.568;2023-07-13T16:20:04;2.97;;;1.20;;
11827;SDS011;5971;49.646;8.568;2023-07-13T16:23:08;3.47;;;1.02;;
11827;SDS011;5971;49.646;8.568;2023-07-13T16:26:25;2.92;;;1.10;;
11827;SDS011;5971;49.646;8.568;2023-07-13T16:29:27;1.77;;;1.10;;
11827;SDS011;5971;49.646;8.568;2023-07-13T16:32:29;2.97;;;1.05;;
11827;SDS011;5971;49.646;8.568;2023-07-13T16:35:35;1.90;;;0.98;;
11827;SDS011;5971;49.646;8.568;2023-07-13T16:38:37;2.35;;;0.90;;
11827;SDS011;5971;49.646;8.568;2023-07-13T16:41:38;2.10;;;1.52;;
11827;SDS011;5971;49.646;8.568;2023-07-13T16:44:44;2.05;;;1.17;;
11827;SDS011;5971;49.646;8.568;2023-07-13T16:47:46;1.92;;;0.95;;
11827;SDS011;5971;49.646;8.568;2023-07-13T16:50:51;2.10;;;0.90;;
11827;SDS011;5971;49.646;8.568;2023-07-13T16:53:53;1.70;;;0.82;;
11827;SDS011;5971;49.646;8.568;2023-07-13T16:56:54;2.10;;;0.90;;
11827;SDS011;5971;49.646;8.568;2023-07-13T16:59:55;2.13;;;1.20;;
11827;SDS011;5971;49.646;8.568;2023-07-13T17:02:59;2.28;;;1.25;;
11827;SDS011;5971;49.646;8.568;2023-07-13T17:06:18;1.50;;;0.98;;
11827;SDS011;5971;49.646;8.568;2023-07-13T17:09:20;3.67;;;1.15;;
11827;SDS011;5971;49.646;8.568;2023-07-13T17:12:24;1.98;;;0.93;;
11827;SDS011;5971;49.646;8.568;2023-07-13T17:15:26;1.73;;;0.85;;
11827;SDS011;5971;49.646;8.568;2023-07-13T17:18:29;1.98;;;0.90;;
11827;SDS011;5971;49.646;8.568;2023-07-13T17:21:37;1.92;;;0.88;;
11827;SDS011;5971;49.646;8.568;2023-07-13T17:24:39;2.65;;;0.85;;
11827;SDS011;5971;49.646;8.568;2023-07-13T17:27:45;1.90;;;0.73;;
11827;SDS011;5971;49.646;8.568;2023-07-13T17:30:47;2.53;;;0.93;;
11827;SDS011;5971;49.646;8.568;2023-07-13T17:33:49;2.65;;;1.17;;
11827;SDS011;5971;49.646;8.568;2023-07-13T17:36:51;1.75;;;1.00;;
11827;SDS011;5971;49.646;8.568;2023-07-13T17:39:52;3.45;;;1.00;;
11827;SDS011;5971;49.646;8.568;2023-07-13T17:42:54;1.73;;;0.80;;
11827;SDS011;5971;49.646;8.568;2023-07-13T17:45:56;1.90;;;0.90;;
11827;SDS011;5971;49.646;8.568;2023-07-13T17:48:58;2.33;;;0.82;;
11827;SDS011;5971;49.646;8.568;2023-07-13T17:52:00;1.90;;;1.20;;
11827;SDS011;5971;49.646;8.568;2023-07-13T17:55:16;5.15;;;1.30;;
11827;SDS011;5971;49.646;8.568;2023-07-13T17:58:18;2.05;;;1.00;;
11827;SDS011;5971;49.646;8.568;2023-07-13T18:01:21;1.45;;;0.93;;
11827;SDS011;5971;49.646;8.568;2023-07-13T18:04:23;3.00;;;1.08;;
11827;SDS011;5971;49.646;8.568;2023-07-13T18:07:26;1.30;;;0.90;;
11827;SDS011;5971;49.646;8.568;2023-07-13T18:10:29;1.98;;;0.90;;
11827;SDS011;5971;49.646;8.568;2023-07-13T18:13:31;1.65;;;0.90;;
11827;SDS011;5971;49.646;8.568;2023-07-13T18:16:40;2.13;;;0.93;;
11827;SDS011;5971;49.646;8.568;2023-07-13T18:19:44;1.63;;;1.38;;
11827;SDS011;5971;49.646;8.568;2023-07-13T18:25:49;2.78;;;1.20;;
11827;SDS011;5971;49.646;8.568;2023-07-13T18:28:51;4.82;;;1.25;;
11827;SDS011;5971;49.646;8.568;2023-07-13T18:31:54;3.72;;;1.10;;
11827;SDS011;5971;49.646;8.568;2023-07-13T18:34:58;2.00;;;1.05;;
11827;SDS011;5971;49.646;8.568;2023-07-13T18:37:59;2.03;;;0.95;;
11827;SDS011;5971;49.646;8.568;2023-07-13T18:41:02;2.67;;;0.93;;
11827;SDS011;5971;49.646;8.568;2023-07-13T18:44:03;3.05;;;0.93;;
11827;SDS011;5971;49.646;8.568;2023-07-13T18:47:04;2.63;;;1.00;;
11827;SDS011;5971;49.646;8.568;2023-07-13T18:50:17;2.65;;;1.13;;
11827;SDS011;5971;49.646;8.568;2023-07-13T18:53:19;2.03;;;1.00;;
11827;SDS011;5971;49.646;8.568;2023-07-13T18:56:21;3.13;;;1.60;;
11827;SDS011;5971;49.646;8.568;2023-07-13T18:59:22;2.58;;;1.10;;
11827;SDS011;5971;49.646;8.568;2023-07-13T19:02:25;2.25;;;0.95;;
11827;SDS011;5971;49.646;8.568;2023-07-13T19:05:31;4.15;;;1.30;;
11827;SDS011;5971;49.646;8.568;2023-07-13T19:08:49;2.28;;;1.20;;
11827;SDS011;5971;49.646;8.568;2023-07-13T19:11:52;3.20;;;1.05;;
11827;SDS011;5971;49.646;8.568;2023-07-13T19:14:53;2.20;;;1.02;;